GMMH

Dakhla Airport

Dakhla, Western Sahara
METAR GMMH 171800Z 02020KT CAVOK 23/16 Q1015 NOSIG
Observed Flight Rules
Oct-17 @ 18:00 UTC (20 minutes ago) Visual Flight Rules
Wind Visibility Clouds
20° at 20 knots 10,000+ meters
  • Clear skies
Temperatures Readings
Current 23°C / 73°F
Dewpoint 16°C / 61°F
Humidity 65%
Altimeter 29.97" Hg
Pressure 1015 hPa
Elevation 11
METAR GMMH 171800Z 02020KT CAVOK 23/16 Q1015 NOSIG
Observed Flight Rules
Oct-17 @ 18:00 UTC
(20 minutes ago)
VFR
Wind Visibility
20° at 20 knots 10,000+ meters
Clouds
  • Clear skies
Temperature Dewpoint
23°C / 73°F 16°C / 61°F
Humidity Altimeter Pressure
65% 29.97" Hg 1015 hPa